createdAt,value
2023-05-22T00:00:16.648Z,97258.09
2023-05-22T00:02:44.696Z,97263.56
2023-05-22T00:05:13.301Z,97251.13
2023-05-22T00:07:43.316Z,97257.00
2023-05-22T00:10:11.390Z,97262.53
2023-05-22T00:12:39.148Z,97264.16
2023-05-22T00:15:07.703Z,97265.41
2023-05-22T00:17:35.468Z,97249.78
2023-05-22T00:20:06.869Z,97249.41
2023-05-22T00:22:37.478Z,97249.53
2023-05-22T00:25:05.757Z,97258.88
2023-05-22T00:27:34.080Z,97253.19
2023-05-22T00:30:01.911Z,97255.44
2023-05-22T00:32:29.901Z,97264.78
2023-05-22T00:34:57.832Z,97256.56
2023-05-22T00:37:25.980Z,97261.81
2023-05-22T00:39:53.739Z,97266.59
2023-05-22T00:42:21.507Z,97262.31
2023-05-22T00:44:49.907Z,97266.19
2023-05-22T00:47:17.644Z,97264.41
2023-05-22T00:49:45.393Z,97258.97
2023-05-22T00:52:13.159Z,97264.91
2023-05-22T00:54:41.257Z,97264.91
2023-05-22T00:57:08.959Z,97268.91
2023-05-22T00:59:36.835Z,97266.91
2023-05-22T01:02:04.676Z,97260.16
2023-05-22T01:04:32.832Z,97259.56
2023-05-22T01:07:02.917Z,97257.06
2023-05-22T01:09:30.731Z,97254.88
2023-05-22T01:12:16.624Z,97260.41
2023-05-22T01:14:49.808Z,97254.56
2023-05-22T01:17:48.701Z,97254.13
2023-05-22T01:21:04.298Z,97248.34
2023-05-22T01:23:54.126Z,97247.38
2023-05-22T01:26:32.233Z,97243.38
2023-05-22T01:29:14.329Z,97247.25
2023-05-22T01:31:43.336Z,97243.66
2023-05-22T01:34:11.859Z,97246.59
2023-05-22T01:36:40.499Z,97244.88
2023-05-22T01:39:08.274Z,97244.56
2023-05-22T01:41:36.070Z,97234.28
2023-05-22T01:44:04.527Z,97243.78
2023-05-22T01:46:32.374Z,97239.59
2023-05-22T01:49:00.536Z,97237.22
2023-05-22T01:51:37.094Z,97238.69
2023-05-22T01:54:14.385Z,97248.28
2023-05-22T01:56:54.987Z,97239.53
2023-05-22T01:59:33.085Z,97244.38
2023-05-22T02:02:06.378Z,97241.00
2023-05-22T02:04:37.281Z,97231.66
2023-05-22T02:07:05.272Z,97227.72
2023-05-22T02:09:33.020Z,97231.44
2023-05-22T02:12:01.039Z,97233.84
2023-05-22T02:14:30.406Z,97235.91
2023-05-22T02:16:58.350Z,97234.53
2023-05-22T02:19:28.431Z,97230.47
2023-05-22T02:21:57.078Z,97230.03
2023-05-22T02:24:24.773Z,97223.81
2023-05-22T02:26:53.620Z,97233.91
2023-05-22T02:29:21.338Z,97233.41
2023-05-22T02:31:49.525Z,97237.53
2023-05-22T02:34:17.274Z,97238.88
2023-05-22T02:36:45.072Z,97233.72
2023-05-22T02:39:13.630Z,97235.50
2023-05-22T02:41:41.732Z,97229.91
2023-05-22T02:44:09.638Z,97238.09
2023-05-22T02:46:37.555Z,97230.47
2023-05-22T02:49:05.452Z,97234.41
2023-05-22T02:51:33.292Z,97225.28
2023-05-22T02:54:01.053Z,97230.19
2023-05-22T02:56:29.604Z,97232.00
2023-05-22T02:58:57.422Z,97226.84
2023-05-22T03:01:26.591Z,97238.09
2023-05-22T03:03:55.514Z,97232.00
2023-05-22T03:06:25.529Z,97223.00
2023-05-22T03:08:54.360Z,97231.25
2023-05-22T03:11:22.157Z,97224.28
2023-05-22T03:13:49.866Z,97227.25
2023-05-22T03:16:17.753Z,97223.59
2023-05-22T03:18:47.532Z,97230.88
2023-05-22T03:21:15.407Z,97227.78
2023-05-22T03:23:44.835Z,97231.38
2023-05-22T03:26:12.659Z,97230.88
2023-05-22T03:28:41.357Z,97227.81
2023-05-22T03:31:09.495Z,97229.13
2023-05-22T03:33:51.100Z,97233.19
2023-05-22T03:36:20.051Z,97238.66
2023-05-22T03:38:47.791Z,97231.53
2023-05-22T03:41:15.831Z,97232.28
2023-05-22T03:43:44.987Z,97234.56
2023-05-22T03:46:13.871Z,97235.41
2023-05-22T03:48:41.658Z,97232.41
2023-05-22T03:51:09.463Z,97239.47
2023-05-22T03:53:37.191Z,97235.31
2023-05-22T03:56:05.191Z,97234.13
2023-05-22T03:58:33.012Z,97234.97
2023-05-22T04:01:01.373Z,97231.38
2023-05-22T04:03:29.299Z,97227.53
2023-05-22T04:05:57.214Z,97231.38
2023-05-22T04:08:25.185Z,97230.13
2023-05-22T04:10:54.565Z,97231.81
2023-05-22T04:13:22.483Z,97231.63
2023-05-22T04:15:50.428Z,97232.13
2023-05-22T04:18:18.250Z,97229.75
2023-05-22T04:20:47.184Z,97227.22
2023-05-22T04:23:15.076Z,97232.91
2023-05-22T04:25:42.848Z,97216.13
2023-05-22T04:28:10.667Z,97221.06
2023-05-22T04:30:40.261Z,97218.25
2023-05-22T04:33:08.503Z,97209.50
2023-05-22T04:35:36.342Z,97223.44
2023-05-22T04:38:06.602Z,97215.75
2023-05-22T04:40:34.462Z,97225.28
2023-05-22T04:43:03.431Z,97219.88
2023-05-22T04:45:32.980Z,97225.66
2023-05-22T04:48:02.655Z,97222.59
2023-05-22T04:50:34.390Z,97218.91
2023-05-22T04:53:04.556Z,97213.75
2023-05-22T04:55:35.567Z,97219.31
2023-05-22T04:58:03.388Z,97226.41
2023-05-22T05:00:31.207Z,97231.09
2023-05-22T05:03:03.269Z,97230.88
2023-05-22T05:05:31.321Z,97214.75
2023-05-22T05:07:59.910Z,97221.31
2023-05-22T05:10:27.955Z,97220.84
2023-05-22T05:12:55.835Z,97222.91
2023-05-22T05:15:23.990Z,97230.22
2023-05-22T05:17:52.077Z,97232.28
2023-05-22T05:20:20.476Z,97233.34
2023-05-22T05:22:48.409Z,97226.03
2023-05-22T05:25:16.967Z,97236.97
2023-05-22T05:27:45.190Z,97230.44
2023-05-22T05:30:13.465Z,97235.13
2023-05-22T05:33:01.845Z,97232.75
2023-05-22T05:35:44.633Z,97232.53
2023-05-22T05:38:14.228Z,97241.31
2023-05-22T05:40:44.994Z,97242.88
2023-05-22T05:43:16.693Z,97240.25
2023-05-22T05:45:45.813Z,97238.13
2023-05-22T05:48:13.702Z,97247.25
2023-05-22T05:50:44.948Z,97236.81
2023-05-22T05:53:12.802Z,97249.47
2023-05-22T05:55:44.951Z,97243.69
2023-05-22T05:58:12.780Z,97245.81
2023-05-22T06:00:46.681Z,97249.88
2023-05-22T06:03:14.959Z,97252.63
2023-05-22T06:06:03.311Z,97239.56
2023-05-22T06:08:57.421Z,97235.31
2023-05-22T06:11:31.460Z,97237.81
2023-05-22T06:14:03.178Z,97248.81
2023-05-22T06:16:31.279Z,97240.44
2023-05-22T06:18:59.385Z,97245.50
2023-05-22T06:21:27.762Z,97235.34
2023-05-22T06:23:55.673Z,97237.47
2023-05-22T06:26:25.863Z,97232.53
2023-05-22T06:28:54.385Z,97236.72
2023-05-22T06:31:24.475Z,97227.78
2023-05-22T06:33:55.626Z,97226.81
2023-05-22T06:36:25.329Z,97224.81
2023-05-22T06:38:54.693Z,97230.22
2023-05-22T06:41:48.612Z,97234.88
2023-05-22T06:44:17.183Z,97230.84
2023-05-22T06:46:45.064Z,97233.47
2023-05-22T06:49:20.323Z,97225.75
2023-05-22T06:51:52.389Z,97228.31
2023-05-22T06:54:21.493Z,97226.25
2023-05-22T06:56:52.535Z,97228.53
2023-05-22T06:59:20.508Z,97229.72
2023-05-22T07:02:20.664Z,97223.09
2023-05-22T07:05:09.221Z,97226.63
2023-05-22T07:07:48.564Z,97223.91
2023-05-22T07:10:16.459Z,97227.91
2023-05-22T07:12:44.322Z,97220.78
2023-05-22T07:15:14.411Z,97208.72
2023-05-22T07:17:49.768Z,97226.50
2023-05-22T07:20:18.846Z,97224.25
2023-05-22T07:22:58.880Z,97215.50
2023-05-22T07:25:26.733Z,97214.31
2023-05-22T07:27:55.918Z,97207.94
2023-05-22T07:30:24.720Z,97211.56
2023-05-22T07:32:52.719Z,97215.06
2023-05-22T07:35:21.361Z,97218.88
2023-05-22T07:37:49.232Z,97215.59
2023-05-22T07:40:17.322Z,97215.50
2023-05-22T07:42:45.171Z,97216.41
2023-05-22T07:45:14.250Z,97212.44
2023-05-22T07:47:42.425Z,97207.25
2023-05-22T07:50:11.512Z,97217.69
2023-05-22T07:52:42.764Z,97218.16
2023-05-22T07:55:11.129Z,97207.03
2023-05-22T07:57:43.702Z,97209.81
2023-05-22T08:00:25.992Z,97214.72
2023-05-22T08:02:53.942Z,97204.50
2023-05-22T08:05:21.800Z,97205.59
2023-05-22T08:07:49.609Z,97216.53
2023-05-22T08:10:18.323Z,97210.31
2023-05-22T08:12:46.158Z,97211.38
2023-05-22T08:15:13.971Z,97206.63
2023-05-22T08:17:41.786Z,97212.69
2023-05-22T08:20:10.388Z,97210.63
2023-05-22T08:22:39.152Z,97210.59
2023-05-22T08:25:07.192Z,97208.44
2023-05-22T08:27:34.996Z,97216.84
2023-05-22T08:30:04.603Z,97209.81
2023-05-22T08:32:32.545Z,97211.56
2023-05-22T08:35:00.635Z,97205.09
2023-05-22T08:37:28.386Z,97210.06
2023-05-22T08:39:56.348Z,97212.75
2023-05-22T08:42:24.474Z,97202.63
2023-05-22T08:44:52.385Z,97203.03
2023-05-22T08:47:20.593Z,97207.25
2023-05-22T08:49:48.857Z,97209.44
2023-05-22T08:52:21.816Z,97206.03
2023-05-22T08:54:53.108Z,97204.72
2023-05-22T08:57:21.049Z,97195.97
2023-05-22T08:59:48.956Z,97196.44
2023-05-22T09:02:17.278Z,97191.81
2023-05-22T09:04:45.034Z,97186.66
2023-05-22T09:07:14.572Z,97201.50
2023-05-22T09:09:42.405Z,97198.72
2023-05-22T09:12:10.520Z,97187.69
2023-05-22T09:14:39.728Z,97180.09
2023-05-22T09:17:12.014Z,97187.28
2023-05-22T09:19:43.750Z,97180.53
2023-05-22T09:22:11.607Z,97167.19
2023-05-22T09:24:42.655Z,97175.06
2023-05-22T09:27:11.201Z,97174.34
2023-05-22T09:29:49.755Z,97177.00
2023-05-22T09:32:18.392Z,97184.44
2023-05-22T09:34:46.952Z,97175.66
2023-05-22T09:37:15.329Z,97186.88
2023-05-22T09:39:44.205Z,97173.00
2023-05-22T09:42:12.947Z,97180.25
2023-05-22T09:44:42.710Z,97175.44
2023-05-22T09:47:11.212Z,97173.22
2023-05-22T09:49:42.667Z,97182.47
2023-05-22T09:52:12.631Z,97181.53
2023-05-22T09:54:59.636Z,97180.94
2023-05-22T09:57:27.536Z,97194.72
2023-05-22T09:59:58.213Z,97185.47
2023-05-22T10:02:26.807Z,97186.78
2023-05-22T10:04:54.966Z,97186.22
2023-05-22T10:07:25.399Z,97197.53
2023-05-22T10:09:57.555Z,97181.28
2023-05-22T10:12:25.565Z,97182.25
2023-05-22T10:14:53.352Z,97184.72
2023-05-22T10:17:21.363Z,97179.22
2023-05-22T10:19:49.244Z,97182.47
2023-05-22T10:22:20.991Z,97179.38
2023-05-22T10:24:48.867Z,97180.66
2023-05-22T10:27:16.675Z,97181.34
2023-05-22T10:29:51.279Z,97175.81
2023-05-22T10:32:28.649Z,97171.19
2023-05-22T10:35:16.663Z,97173.53
2023-05-22T10:37:55.045Z,97171.31
2023-05-22T10:40:29.275Z,97182.47
2023-05-22T10:43:01.139Z,97177.03
2023-05-22T10:45:29.211Z,97167.69
2023-05-22T10:48:07.386Z,97171.75
2023-05-22T10:50:35.920Z,97160.03
2023-05-22T10:53:22.466Z,97157.38
2023-05-22T10:55:50.941Z,97153.38
2023-05-22T10:58:22.913Z,97153.00
2023-05-22T11:01:07.305Z,97151.59
2023-05-22T11:03:54.233Z,97142.50
2023-05-22T11:06:31.368Z,97135.66
2023-05-22T11:08:59.353Z,97138.41
2023-05-22T11:11:27.346Z,97136.34
2023-05-22T11:14:04.552Z,97135.25
2023-05-22T11:16:35.883Z,97137.47
2023-05-22T11:19:22.056Z,97141.19
2023-05-22T11:21:51.162Z,97141.16
2023-05-22T11:24:19.126Z,97138.75
2023-05-22T11:27:00.849Z,97135.34
2023-05-22T11:29:29.303Z,97142.19
2023-05-22T11:32:00.747Z,97130.31
2023-05-22T11:34:28.695Z,97134.28
2023-05-22T11:36:59.886Z,97129.50
2023-05-22T11:39:27.852Z,97131.56
2023-05-22T11:41:55.751Z,97131.59
2023-05-22T11:44:23.563Z,97127.00
2023-05-22T11:46:51.692Z,97126.97
2023-05-22T11:49:23.922Z,97124.44
2023-05-22T11:51:51.983Z,97118.94
2023-05-22T11:54:20.247Z,97122.84
2023-05-22T11:56:48.089Z,97117.06
2023-05-22T11:59:19.401Z,97106.84
2023-05-22T12:01:52.240Z,97105.47
2023-05-22T12:04:20.105Z,97110.03
2023-05-22T12:06:48.049Z,97112.09
2023-05-22T12:09:15.838Z,97105.91
2023-05-22T12:11:49.883Z,97105.59
2023-05-22T12:14:17.745Z,97103.41
2023-05-22T12:16:45.603Z,97108.66
2023-05-22T12:19:13.999Z,97098.09
2023-05-22T12:21:42.162Z,97103.88
2023-05-22T12:24:10.120Z,97101.25
2023-05-22T12:26:38.052Z,97092.34
2023-05-22T12:29:06.080Z,97104.13
2023-05-22T12:31:36.304Z,97095.78
2023-05-22T12:34:05.521Z,97109.84
2023-05-22T12:36:35.020Z,97109.63
2023-05-22T12:39:02.848Z,97090.19
2023-05-22T12:41:30.624Z,97097.81
2023-05-22T12:43:58.408Z,97086.00
2023-05-22T12:46:26.357Z,97088.31
2023-05-22T12:48:54.354Z,97086.75
2023-05-22T12:51:24.110Z,97082.03
2023-05-22T12:53:51.880Z,97084.72
2023-05-22T12:56:19.714Z,97085.91
2023-05-22T12:58:47.472Z,97093.84
2023-05-22T13:01:15.503Z,97095.22
2023-05-22T13:03:43.390Z,97109.13
2023-05-22T13:06:12.324Z,97100.97
2023-05-22T13:08:40.134Z,97101.34
2023-05-22T13:11:07.972Z,97100.56
2023-05-22T13:13:35.744Z,97090.34
2023-05-22T13:16:03.662Z,97079.59
2023-05-22T13:18:31.580Z,97073.63
2023-05-22T13:21:00.440Z,97069.88
2023-05-22T13:23:28.322Z,97086.75
2023-05-22T13:25:56.223Z,97075.72
2023-05-22T13:28:24.066Z,97082.41
2023-05-22T13:30:51.886Z,97080.66
2023-05-22T13:33:19.657Z,97081.84
2023-05-22T13:35:47.465Z,97074.97
2023-05-22T13:38:16.439Z,97066.47
2023-05-22T13:40:46.191Z,97078.69
2023-05-22T13:43:15.455Z,97075.06
2023-05-22T13:45:43.313Z,97065.53
2023-05-22T13:48:11.428Z,97065.88
2023-05-22T13:50:39.364Z,97074.81
2023-05-22T13:53:07.138Z,97078.16
2023-05-22T13:55:34.939Z,97077.16
2023-05-22T13:58:02.677Z,97067.16
2023-05-22T14:00:30.657Z,97072.16
2023-05-22T14:02:58.589Z,97070.66
2023-05-22T14:05:26.422Z,97069.81
2023-05-22T14:07:55.917Z,97066.47
2023-05-22T14:10:23.672Z,97069.66
2023-05-22T14:12:51.552Z,97080.22
2023-05-22T14:15:19.344Z,97083.38
2023-05-22T14:17:47.211Z,97088.31
2023-05-22T14:20:15.128Z,97088.53
2023-05-22T14:22:56.531Z,97089.03
2023-05-22T14:25:26.373Z,97093.00
2023-05-22T14:27:54.157Z,97097.44
2023-05-22T14:30:21.905Z,97094.09
2023-05-22T14:32:49.945Z,97095.63
2023-05-22T14:35:17.909Z,97088.16
2023-05-22T14:37:45.785Z,97081.75
2023-05-22T14:40:13.678Z,97077.00
2023-05-22T14:42:41.503Z,97064.78
2023-05-22T14:45:09.523Z,97078.69
2023-05-22T14:47:37.426Z,97081.53
2023-05-22T14:50:18.217Z,97070.94
2023-05-22T14:52:48.776Z,97073.09
2023-05-22T14:55:17.104Z,97079.22
2023-05-22T14:57:45.103Z,97076.75
2023-05-22T15:00:14.163Z,97073.22
2023-05-22T15:02:42.069Z,97066.59
2023-05-22T15:05:10.074Z,97081.72
2023-05-22T15:10:09.712Z,97072.00
2023-05-22T15:12:37.477Z,97072.63
2023-05-22T15:15:05.601Z,97086.75
2023-05-22T15:17:33.485Z,97089.47
2023-05-22T15:20:01.395Z,97093.19
2023-05-22T15:22:29.245Z,97091.63
2023-05-22T15:25:11.638Z,97086.50
2023-05-22T15:27:39.711Z,97100.00
2023-05-22T15:30:09.777Z,97093.38
2023-05-22T15:32:37.890Z,97094.53
2023-05-22T15:35:07.013Z,97089.50
2023-05-22T15:37:36.502Z,97083.28
2023-05-22T15:40:05.871Z,97090.47
2023-05-22T15:42:33.640Z,97084.63
2023-05-22T15:45:01.453Z,97080.56
2023-05-22T15:47:29.572Z,97079.00
2023-05-22T15:49:57.441Z,97073.75
2023-05-22T15:52:25.315Z,97076.09
2023-05-22T15:54:55.002Z,97076.56
2023-05-22T15:57:24.123Z,97074.72
2023-05-22T15:59:52.005Z,97064.41
2023-05-22T16:02:19.801Z,97065.19
2023-05-22T16:04:48.804Z,97061.13
2023-05-22T16:07:18.873Z,97059.97
2023-05-22T16:09:46.723Z,97072.34
2023-05-22T16:12:14.496Z,97073.56
2023-05-22T16:14:42.318Z,97083.28
2023-05-22T16:17:10.119Z,97084.06
2023-05-22T16:19:38.021Z,97078.81
2023-05-22T16:22:05.806Z,97083.19
2023-05-22T16:24:33.655Z,97073.47
2023-05-22T16:27:01.427Z,97084.06
2023-05-22T16:29:29.250Z,97097.66
2023-05-22T16:31:57.075Z,97093.47
2023-05-22T16:34:25.066Z,97097.97
2023-05-22T16:36:52.781Z,97093.09
2023-05-22T16:39:20.644Z,97102.72
2023-05-22T16:41:48.475Z,97098.25
2023-05-22T16:44:16.318Z,97095.34
2023-05-22T16:46:44.169Z,97097.06
2023-05-22T16:49:12.197Z,97102.03
2023-05-22T16:51:39.937Z,97103.06
2023-05-22T16:54:07.735Z,97111.75
2023-05-22T16:56:35.611Z,97116.69
2023-05-22T16:59:05.152Z,97124.16
2023-05-22T17:01:33.059Z,97125.69
2023-05-22T17:04:00.981Z,97140.84
2023-05-22T17:06:29.438Z,97147.13
2023-05-22T17:08:57.419Z,97138.16
2023-05-22T17:11:26.171Z,97152.50
2023-05-22T17:13:54.043Z,97154.41
2023-05-22T17:16:21.915Z,97155.22
2023-05-22T17:18:49.856Z,97160.41
2023-05-22T17:21:17.680Z,97156.13
2023-05-22T17:23:45.502Z,97147.56
2023-05-22T17:26:14.273Z,97148.34
2023-05-22T17:28:42.122Z,97150.28
2023-05-22T17:31:09.880Z,97159.34
2023-05-22T17:33:37.698Z,97162.38
2023-05-22T17:36:05.721Z,97183.56
2023-05-22T17:38:33.526Z,97196.63
2023-05-22T17:41:01.335Z,97215.97
2023-05-22T17:43:29.416Z,97235.56
2023-05-22T17:45:57.318Z,97244.16
2023-05-22T17:48:27.303Z,97237.97
2023-05-22T17:50:55.409Z,97248.19
2023-05-22T17:53:23.219Z,97248.47
2023-05-22T17:55:52.668Z,97247.41
2023-05-22T17:58:21.045Z,97234.91
2023-05-22T18:00:49.148Z,97244.81
2023-05-22T18:03:20.675Z,97247.41
2023-05-22T18:05:49.245Z,97255.16
2023-05-22T18:08:17.840Z,97228.34
2023-05-22T18:10:45.655Z,97230.47
2023-05-22T18:13:13.461Z,97245.81
2023-05-22T18:15:41.326Z,97245.28
2023-05-22T18:18:11.359Z,97242.72
2023-05-22T18:20:40.733Z,97250.03
2023-05-22T18:23:08.621Z,97249.25
2023-05-22T18:25:36.442Z,97248.97
2023-05-22T18:28:04.176Z,97240.13
2023-05-22T18:30:32.347Z,97242.16
2023-05-22T18:33:00.217Z,97228.63
2023-05-22T18:35:28.024Z,97229.69
2023-05-22T18:37:57.090Z,97227.06
2023-05-22T18:40:24.971Z,97224.72
2023-05-22T18:42:52.699Z,97241.66
2023-05-22T18:45:20.483Z,97235.44
2023-05-22T18:47:48.296Z,97231.22
2023-05-22T18:50:16.156Z,97232.81
2023-05-22T18:52:43.884Z,97245.56
2023-05-22T18:55:12.384Z,97249.00
2023-05-22T18:57:40.145Z,97253.16
2023-05-22T19:00:10.201Z,97254.47
2023-05-22T19:02:38.034Z,97265.66
2023-05-22T19:05:07.124Z,97258.34
2023-05-22T19:07:35.108Z,97264.34
2023-05-22T19:10:04.912Z,97258.88
2023-05-22T19:12:34.223Z,97261.50
2023-05-22T19:15:02.032Z,97269.06
2023-05-22T19:17:29.853Z,97262.78
2023-05-22T19:19:57.640Z,97268.78
2023-05-22T19:22:25.389Z,97264.59
2023-05-22T19:24:53.154Z,97257.59
2023-05-22T19:27:20.890Z,97261.50
2023-05-22T19:29:48.771Z,97266.41
2023-05-22T19:32:16.543Z,97266.69
2023-05-22T19:34:44.325Z,97267.72
2023-05-22T19:37:12.023Z,97269.56
2023-05-22T19:39:39.851Z,97274.00
2023-05-22T19:42:08.404Z,97273.97
2023-05-22T19:44:36.191Z,97275.31
2023-05-22T19:47:03.992Z,97283.66
2023-05-22T19:49:36.647Z,97288.00
2023-05-22T19:52:05.822Z,97284.25
2023-05-22T19:54:34.180Z,97280.16
2023-05-22T19:57:02.988Z,97284.88
2023-05-22T19:59:30.794Z,97287.50
2023-05-22T20:01:58.561Z,97279.19
2023-05-22T20:04:26.359Z,97282.03
2023-05-22T20:06:54.282Z,97280.72
2023-05-22T20:09:21.975Z,97282.25
2023-05-22T20:11:49.757Z,97285.66
2023-05-22T20:14:17.486Z,97286.38
2023-05-22T20:16:45.474Z,97286.41
2023-05-22T20:19:14.802Z,97285.59
2023-05-22T20:21:42.668Z,97283.28
2023-05-22T20:24:18.953Z,97275.94
2023-05-22T20:26:47.127Z,97281.72
2023-05-22T20:29:14.952Z,97274.41
2023-05-22T20:31:42.769Z,97264.75
2023-05-22T20:34:10.557Z,97270.16
2023-05-22T20:36:42.614Z,97270.69
2023-05-22T20:39:11.937Z,97264.75
2023-05-22T20:41:39.716Z,97280.66
2023-05-22T20:44:07.805Z,97273.88
2023-05-22T20:46:35.653Z,97272.06
2023-05-22T20:49:04.853Z,97270.72
2023-05-22T20:51:32.876Z,97269.16
2023-05-22T20:54:00.845Z,97262.59
2023-05-22T20:56:30.103Z,97267.38
2023-05-22T20:58:57.968Z,97275.88
2023-05-22T21:01:25.830Z,97275.66
2023-05-22T21:03:54.564Z,97280.41
2023-05-22T21:06:22.653Z,97277.84
2023-05-22T21:08:52.502Z,97279.81
2023-05-22T21:11:21.756Z,97271.19
2023-05-22T21:13:49.496Z,97276.03
2023-05-22T21:16:17.275Z,97270.28
2023-05-22T21:18:45.091Z,97288.56
2023-05-22T21:21:14.459Z,97280.72
2023-05-22T21:23:43.262Z,97280.69
2023-05-22T21:26:11.111Z,97285.91
2023-05-22T21:28:39.013Z,97281.41
2023-05-22T21:31:07.038Z,97282.13
2023-05-22T21:33:34.998Z,97283.41
2023-05-22T21:36:02.794Z,97279.25
2023-05-22T21:38:30.644Z,97279.31
2023-05-22T21:40:59.023Z,97272.94
2023-05-22T21:43:26.709Z,97267.16
2023-05-22T21:45:54.489Z,97282.44
2023-05-22T21:48:22.185Z,97277.28
2023-05-22T21:50:50.321Z,97268.84
2023-05-22T21:53:18.069Z,97269.00
2023-05-22T21:55:45.869Z,97263.88
2023-05-22T21:58:13.701Z,97276.16
2023-05-22T22:00:41.832Z,97270.03
2023-05-22T22:03:09.804Z,97276.13
2023-05-22T22:05:37.639Z,97279.72
2023-05-22T22:08:05.853Z,97278.09
2023-05-22T22:10:33.831Z,97273.69
2023-05-22T22:13:02.339Z,97275.09
2023-05-22T22:15:30.027Z,97276.78
2023-05-22T22:17:59.562Z,97275.09
2023-05-22T22:20:42.514Z,97278.75
2023-05-22T22:23:11.729Z,97276.41
2023-05-22T22:25:39.629Z,97280.41
2023-05-22T22:28:07.699Z,97271.84
2023-05-22T22:30:35.713Z,97272.97
2023-05-22T22:33:03.558Z,97279.34
2023-05-22T22:35:31.602Z,97275.13
2023-05-22T22:37:59.471Z,97274.34
2023-05-22T22:40:27.318Z,97264.41
2023-05-22T22:42:55.060Z,97276.69
2023-05-22T22:45:22.794Z,97267.84
2023-05-22T22:47:50.615Z,97269.00
2023-05-22T22:50:18.481Z,97272.41
2023-05-22T22:52:46.305Z,97269.19
2023-05-22T22:55:14.178Z,97261.59
2023-05-22T22:57:44.603Z,97266.88
2023-05-22T23:00:13.423Z,97266.31
2023-05-22T23:02:41.284Z,97261.31
2023-05-22T23:05:09.391Z,97254.91
2023-05-22T23:07:37.380Z,97259.59
2023-05-22T23:10:05.512Z,97264.28
2023-05-22T23:12:36.040Z,97263.34
2023-05-22T23:15:04.446Z,97268.41
2023-05-22T23:17:32.220Z,97266.66
2023-05-22T23:19:59.960Z,97268.50
2023-05-22T23:22:27.749Z,97256.00
2023-05-22T23:24:55.462Z,97253.34
2023-05-22T23:27:23.245Z,97260.31
2023-05-22T23:29:51.055Z,97270.16
2023-05-22T23:32:18.873Z,97261.28
2023-05-22T23:34:46.632Z,97261.19
2023-05-22T23:37:14.419Z,97261.13
2023-05-22T23:39:42.127Z,97252.34
2023-05-22T23:42:10.989Z,97254.50
2023-05-22T23:44:38.781Z,97257.47
2023-05-22T23:47:06.975Z,97251.81
2023-05-22T23:49:34.867Z,97259.06
2023-05-22T23:52:02.666Z,97254.47
2023-05-22T23:54:30.399Z,97253.94
2023-05-22T23:56:58.141Z,97249.88
2023-05-22T23:59:25.931Z,97262.94
